createdAt,value
2018-08-19T00:02:15.896Z,96.00
2018-08-19T00:04:56.201Z,96.00
2018-08-19T00:07:24.639Z,96.20
2018-08-19T00:09:53.113Z,96.40
2018-08-19T00:12:31.660Z,96.50
2018-08-19T00:15:00.228Z,96.40
2018-08-19T00:17:28.712Z,96.40
2018-08-19T00:19:57.673Z,96.30
2018-08-19T00:22:26.110Z,96.70
2018-08-19T00:24:54.572Z,97.00
2018-08-19T00:27:23.108Z,97.10
2018-08-19T00:29:51.577Z,97.10
2018-08-19T00:32:20.076Z,97.60
2018-08-19T00:34:48.590Z,97.40
2018-08-19T00:37:17.022Z,97.60
2018-08-19T00:39:45.462Z,97.60
2018-08-19T00:42:13.882Z,97.60
2018-08-19T00:44:42.400Z,97.60
2018-08-19T00:47:11.284Z,97.80
2018-08-19T00:49:39.819Z,98.00
2018-08-19T00:52:08.360Z,98.00
2018-08-19T00:54:36.794Z,98.20
2018-08-19T00:57:07.842Z,98.40
2018-08-19T00:59:37.540Z,98.50
2018-08-19T01:02:06.161Z,98.50
2018-08-19T01:04:34.591Z,98.70
2018-08-19T01:07:03.249Z,98.80
2018-08-19T01:09:32.433Z,99.10
2018-08-19T01:12:00.925Z,99.10
2018-08-19T01:14:29.417Z,99.20
2018-08-19T01:16:58.040Z,99.30
2018-08-19T01:19:26.509Z,99.30
2018-08-19T01:21:55.167Z,99.60
2018-08-19T01:24:23.682Z,99.50
2018-08-19T01:26:52.225Z,99.40
2018-08-19T01:29:34.023Z,99.50
2018-08-19T01:32:20.229Z,99.30
2018-08-19T01:34:48.788Z,99.50
2018-08-19T01:37:17.231Z,99.30
2018-08-19T01:39:45.666Z,99.50
2018-08-19T01:42:14.113Z,99.40
2018-08-19T01:44:42.696Z,99.30
2018-08-19T01:47:11.150Z,99.30
2018-08-19T01:49:39.600Z,99.30
2018-08-19T01:52:08.681Z,99.20
2018-08-19T01:54:37.202Z,99.10
2018-08-19T01:57:05.670Z,99.00
2018-08-19T01:59:35.185Z,98.70
2018-08-19T02:02:05.792Z,98.70
2018-08-19T02:04:41.066Z,98.80
2018-08-19T02:07:09.522Z,99.00
2018-08-19T02:09:51.458Z,98.80
2018-08-19T02:12:19.937Z,98.90
2018-08-19T02:14:48.417Z,98.80
2018-08-19T02:17:16.884Z,98.80
2018-08-19T02:19:45.389Z,99.00
2018-08-19T02:22:13.829Z,99.10
2018-08-19T02:24:42.255Z,99.20
2018-08-19T02:27:10.723Z,99.10
2018-08-19T02:29:39.170Z,98.90
2018-08-19T02:32:08.844Z,99.00
2018-08-19T02:34:41.882Z,99.00
2018-08-19T02:37:11.851Z,98.80
2018-08-19T02:39:43.251Z,99.00
2018-08-19T02:42:25.149Z,98.90
2018-08-19T02:44:58.203Z,99.10
2018-08-19T02:47:26.661Z,99.00
2018-08-19T02:49:55.114Z,98.80
2018-08-19T02:52:29.843Z,98.90
2018-08-19T02:55:00.790Z,98.90
2018-08-19T02:57:30.812Z,99.10
2018-08-19T03:00:00.707Z,99.10
2018-08-19T03:02:32.789Z,99.10
2018-08-19T03:05:04.046Z,99.20
2018-08-19T03:07:33.050Z,99.20
2018-08-19T03:10:06.928Z,99.10
2018-08-19T03:12:35.435Z,99.10
2018-08-19T03:15:04.507Z,99.00
2018-08-19T03:17:33.186Z,99.10
2018-08-19T03:20:01.950Z,99.10
2018-08-19T03:22:31.149Z,99.70
2018-08-19T03:25:00.149Z,99.90
2018-08-19T03:27:28.689Z,99.90
2018-08-19T03:30:03.424Z,99.90
2018-08-19T03:32:31.867Z,99.90
2018-08-19T03:35:07.088Z,99.90
2018-08-19T03:37:36.581Z,99.90
2018-08-19T03:40:06.062Z,99.90
2018-08-19T03:42:34.501Z,99.90
2018-08-19T03:45:08.229Z,99.90
2018-08-19T03:47:36.769Z,99.90
2018-08-19T03:50:10.926Z,99.90
2018-08-19T03:52:40.252Z,99.90
2018-08-19T03:55:12.932Z,99.90
2018-08-19T03:57:41.422Z,99.90
2018-08-19T04:00:10.958Z,99.90
2018-08-19T04:02:39.468Z,99.90
2018-08-19T04:05:07.951Z,99.90
2018-08-19T04:07:36.436Z,99.90
2018-08-19T04:10:05.004Z,99.90
2018-08-19T04:12:33.468Z,99.90
2018-08-19T04:15:01.894Z,99.90
2018-08-19T04:17:30.338Z,99.90
2018-08-19T04:19:58.765Z,99.90
2018-08-19T04:22:27.214Z,99.90
2018-08-19T04:24:55.642Z,99.90
2018-08-19T04:27:24.068Z,99.90
2018-08-19T04:29:52.542Z,99.90
2018-08-19T04:32:26.501Z,99.90
2018-08-19T04:34:54.945Z,99.90
2018-08-19T04:37:23.405Z,99.90
2018-08-19T04:39:51.844Z,99.90
2018-08-19T04:42:20.407Z,99.90
2018-08-19T04:44:48.739Z,99.90
2018-08-19T04:47:29.073Z,99.90
2018-08-19T04:49:57.579Z,99.90
2018-08-19T04:52:26.238Z,99.90
2018-08-19T04:54:55.957Z,99.90
2018-08-19T04:57:24.385Z,99.90
2018-08-19T04:59:52.851Z,99.90
2018-08-19T05:02:21.712Z,99.90
2018-08-19T05:04:50.053Z,99.90
2018-08-19T05:07:18.510Z,99.90
2018-08-19T05:09:47.050Z,99.90
2018-08-19T05:12:15.460Z,99.90
2018-08-19T05:14:43.882Z,99.90
2018-08-19T05:17:12.398Z,99.90
2018-08-19T05:19:40.861Z,99.90
2018-08-19T05:22:14.506Z,99.90
2018-08-19T05:24:44.437Z,99.90
2018-08-19T05:27:13.006Z,99.90
2018-08-19T05:29:41.440Z,99.90
2018-08-19T05:32:14.061Z,99.90
2018-08-19T05:34:42.982Z,99.90
2018-08-19T05:37:11.481Z,99.90
2018-08-19T05:39:51.199Z,99.90
2018-08-19T05:42:19.658Z,99.90
2018-08-19T05:44:48.106Z,99.90
2018-08-19T05:47:17.686Z,99.90
2018-08-19T05:49:47.310Z,99.90
2018-08-19T05:52:16.857Z,99.90
2018-08-19T05:55:04.003Z,99.90
2018-08-19T05:57:33.848Z,99.90
2018-08-19T06:00:07.757Z,99.90
2018-08-19T06:02:42.341Z,99.90
2018-08-19T06:05:10.803Z,99.90
2018-08-19T06:07:39.291Z,99.90
2018-08-19T06:10:08.033Z,99.90
2018-08-19T06:12:36.489Z,99.90
2018-08-19T06:15:05.527Z,99.90
2018-08-19T06:17:33.975Z,99.90
2018-08-19T06:20:02.437Z,99.90
2018-08-19T06:22:36.399Z,99.90
2018-08-19T06:25:05.171Z,99.90
2018-08-19T06:27:41.727Z,99.90
2018-08-19T06:30:10.271Z,99.90
2018-08-19T06:32:38.859Z,99.90
2018-08-19T06:35:08.525Z,99.90
2018-08-19T06:37:36.983Z,99.90
2018-08-19T06:40:06.905Z,99.90
2018-08-19T06:42:35.398Z,99.90
2018-08-19T06:45:04.170Z,99.90
2018-08-19T06:47:32.692Z,99.90
2018-08-19T06:50:01.498Z,99.90
2018-08-19T06:52:29.952Z,99.90
2018-08-19T06:54:58.414Z,99.90
2018-08-19T06:57:28.582Z,99.90
2018-08-19T06:59:57.421Z,99.90
2018-08-19T07:02:25.963Z,99.90
2018-08-19T07:04:54.447Z,99.90
2018-08-19T07:07:22.928Z,99.20
2018-08-19T07:09:51.419Z,99.90
2018-08-19T07:12:21.697Z,99.60
2018-08-19T07:14:50.492Z,99.70
2018-08-19T07:17:19.748Z,98.60
2018-08-19T07:19:48.350Z,98.70
2018-08-19T07:22:19.454Z,98.80
2018-08-19T07:24:47.977Z,97.60
2018-08-19T07:27:16.502Z,97.00
2018-08-19T07:29:45.273Z,96.50
2018-08-19T07:32:14.150Z,97.30
2018-08-19T07:34:42.845Z,97.60
2018-08-19T07:37:11.421Z,97.50
2018-08-19T07:39:46.287Z,97.20
2018-08-19T07:42:15.144Z,96.60
2018-08-19T07:44:43.593Z,97.10
2018-08-19T07:47:12.074Z,96.40
2018-08-19T07:49:40.557Z,96.60
2018-08-19T07:52:09.004Z,96.60
2018-08-19T07:54:37.475Z,95.80
2018-08-19T07:57:16.240Z,95.40
2018-08-19T07:59:46.887Z,94.90
2018-08-19T08:02:15.358Z,95.20
2018-08-19T08:04:44.748Z,94.60
2018-08-19T08:07:14.549Z,93.80
2018-08-19T08:09:43.370Z,94.10
2018-08-19T08:12:13.334Z,93.50
2018-08-19T08:14:47.308Z,92.70
2018-08-19T08:17:15.850Z,92.20
2018-08-19T08:20:03.330Z,91.80
2018-08-19T08:22:32.872Z,92.00
2018-08-19T08:25:02.243Z,92.40
2018-08-19T08:27:31.790Z,92.10
2018-08-19T08:30:03.200Z,91.40
2018-08-19T08:32:31.735Z,91.40
2018-08-19T08:35:00.250Z,90.70
2018-08-19T08:37:28.710Z,90.60
2018-08-19T08:40:02.497Z,90.40
2018-08-19T08:42:39.183Z,90.40
2018-08-19T08:45:08.499Z,90.80
2018-08-19T08:47:37.070Z,90.80
2018-08-19T08:50:05.769Z,90.80
2018-08-19T08:52:34.232Z,90.40
2018-08-19T08:55:03.891Z,90.80
2018-08-19T08:57:32.355Z,90.60
2018-08-19T09:00:00.803Z,91.40
2018-08-19T09:02:29.314Z,90.90
2018-08-19T09:04:57.743Z,90.50
2018-08-19T09:07:27.718Z,91.10
2018-08-19T09:09:56.309Z,90.80
2018-08-19T09:12:35.956Z,90.50
2018-08-19T09:15:04.906Z,89.60
2018-08-19T09:17:33.480Z,90.00
2018-08-19T09:20:01.936Z,89.50
2018-08-19T09:22:30.379Z,90.80
2018-08-19T09:24:58.962Z,90.00
2018-08-19T09:27:28.386Z,89.20
2018-08-19T09:29:56.934Z,89.20
2018-08-19T09:32:25.400Z,89.30
2018-08-19T09:34:53.858Z,90.10
2018-08-19T09:37:22.439Z,89.10
2018-08-19T09:39:50.929Z,88.30
2018-08-19T09:42:19.538Z,89.60
2018-08-19T09:44:48.073Z,88.00
2018-08-19T09:47:16.610Z,89.00
2018-08-19T09:49:45.194Z,88.10
2018-08-19T09:52:13.671Z,89.00
2018-08-19T09:54:42.214Z,90.10
2018-08-19T09:57:10.742Z,88.50
2018-08-19T09:59:39.192Z,87.90
2018-08-19T10:02:09.657Z,86.70
2018-08-19T10:04:38.134Z,86.80
2018-08-19T10:07:11.945Z,85.50
2018-08-19T10:09:40.539Z,86.60
2018-08-19T10:12:09.837Z,86.10
2018-08-19T10:14:38.357Z,86.20
2018-08-19T10:17:06.965Z,84.70
2018-08-19T10:19:35.393Z,83.20
2018-08-19T10:22:04.005Z,83.50
2018-08-19T10:24:33.594Z,85.20
2018-08-19T10:27:05.698Z,82.10
2018-08-19T10:29:34.250Z,82.40
2018-08-19T10:32:04.049Z,80.70
2018-08-19T10:34:34.616Z,81.00
2018-08-19T10:37:03.586Z,81.90
2018-08-19T10:39:32.164Z,82.10
2018-08-19T10:42:19.550Z,82.40
2018-08-19T10:44:51.260Z,82.80
2018-08-19T10:47:20.480Z,78.70
2018-08-19T10:49:54.540Z,81.90
2018-08-19T10:52:28.675Z,81.40
2018-08-19T10:54:58.631Z,80.10
2018-08-19T10:57:27.110Z,79.70
2018-08-19T10:59:57.049Z,79.00
2018-08-19T11:02:25.495Z,77.20
2018-08-19T11:04:58.972Z,79.40
2018-08-19T11:07:27.631Z,79.60
2018-08-19T11:10:24.011Z,80.30
2018-08-19T11:12:54.575Z,80.20
2018-08-19T11:15:46.033Z,79.00
2018-08-19T11:18:24.219Z,78.70
2018-08-19T11:20:55.660Z,79.40
2018-08-19T11:23:25.385Z,78.70
2018-08-19T11:25:54.640Z,75.70
2018-08-19T11:28:29.090Z,77.00
2018-08-19T11:30:57.591Z,75.20
2018-08-19T11:33:43.406Z,76.40
2018-08-19T11:36:12.620Z,75.60
2018-08-19T11:38:41.706Z,76.80
2018-08-19T11:41:11.359Z,77.20
2018-08-19T11:43:42.475Z,75.70
2018-08-19T11:46:11.280Z,76.80
2018-08-19T11:48:40.534Z,75.50
2018-08-19T11:51:09.807Z,77.60
2018-08-19T11:53:38.374Z,74.30
2018-08-19T11:56:06.984Z,72.70
2018-08-19T11:58:42.302Z,72.90
2018-08-19T12:01:13.934Z,73.30
2018-08-19T12:03:56.980Z,72.70
2018-08-19T12:06:33.026Z,71.60
2018-08-19T12:09:05.607Z,70.50
2018-08-19T12:11:35.438Z,73.70
2018-08-19T12:14:06.088Z,68.40
2018-08-19T12:16:41.745Z,70.80
2018-08-19T12:19:16.245Z,71.30
2018-08-19T12:22:02.556Z,71.20
2018-08-19T12:24:45.399Z,69.70
2018-08-19T12:27:17.473Z,71.70
2018-08-19T12:29:46.617Z,71.30
2018-08-19T12:32:24.111Z,71.00
2018-08-19T12:34:53.788Z,70.20
2018-08-19T12:37:23.592Z,71.50
2018-08-19T12:39:52.441Z,69.80
2018-08-19T12:42:20.907Z,69.30
2018-08-19T12:44:54.275Z,69.80
2018-08-19T12:47:24.401Z,70.00
2018-08-19T12:49:57.506Z,65.20
2018-08-19T12:52:27.555Z,67.90
2018-08-19T12:55:00.804Z,67.40
2018-08-19T12:57:29.332Z,70.50
2018-08-19T13:00:04.053Z,65.10
2018-08-19T13:02:33.999Z,69.20
2018-08-19T13:05:02.516Z,67.30
2018-08-19T13:07:31.002Z,68.90
2018-08-19T13:09:59.457Z,67.80
2018-08-19T13:12:30.797Z,70.60
2018-08-19T13:14:59.274Z,70.90
2018-08-19T13:17:27.767Z,71.10
2018-08-19T13:20:05.330Z,69.40
2018-08-19T13:22:34.817Z,69.80
2018-08-19T13:25:03.352Z,69.70
2018-08-19T13:27:31.824Z,69.60
2018-08-19T13:30:00.308Z,68.50
2018-08-19T13:32:28.776Z,67.90
2018-08-19T13:34:57.210Z,69.30
2018-08-19T13:37:25.751Z,70.80
2018-08-19T13:39:54.185Z,68.80
2018-08-19T13:42:22.701Z,67.00
2018-08-19T13:44:51.729Z,64.90
2018-08-19T13:47:20.351Z,63.80
2018-08-19T13:49:49.536Z,66.20
2018-08-19T13:52:18.091Z,66.70
2018-08-19T13:55:08.181Z,66.50
2018-08-19T13:57:36.657Z,65.20
2018-08-19T14:00:10.267Z,65.80
2018-08-19T14:02:38.747Z,64.10
2018-08-19T14:05:07.260Z,65.20
2018-08-19T14:07:35.689Z,64.70
2018-08-19T14:10:05.190Z,66.40
2018-08-19T14:12:41.316Z,66.00
2018-08-19T14:15:09.804Z,65.40
2018-08-19T14:17:38.300Z,65.80
2018-08-19T14:20:08.167Z,65.10
2018-08-19T14:22:36.625Z,65.40
2018-08-19T14:25:05.994Z,65.50
2018-08-19T14:27:34.461Z,66.20
2018-08-19T14:30:03.079Z,66.80
2018-08-19T14:32:35.942Z,67.00
2018-08-19T14:35:05.131Z,66.70
2018-08-19T14:37:33.647Z,66.80
2018-08-19T14:40:02.530Z,67.30
2018-08-19T14:42:31.042Z,67.40
2018-08-19T14:45:00.397Z,64.30
2018-08-19T14:47:29.226Z,65.00
2018-08-19T14:49:58.617Z,65.50
2018-08-19T14:52:27.925Z,65.70
2018-08-19T14:54:56.404Z,67.20
2018-08-19T14:57:25.177Z,66.60
2018-08-19T14:59:53.660Z,65.10
2018-08-19T15:02:22.131Z,66.20
2018-08-19T15:04:50.624Z,65.60
2018-08-19T15:07:19.101Z,65.00
2018-08-19T15:09:51.125Z,66.60
2018-08-19T15:12:20.789Z,65.30
2018-08-19T15:14:49.910Z,63.40
2018-08-19T15:17:18.424Z,65.10
2018-08-19T15:19:49.263Z,66.60
2018-08-19T15:22:17.920Z,66.80
2018-08-19T15:24:46.411Z,65.90
2018-08-19T15:27:14.934Z,63.80
2018-08-19T15:29:45.695Z,62.40
2018-08-19T15:32:14.527Z,63.80
2018-08-19T15:34:42.742Z,64.00
2018-08-19T15:37:11.367Z,64.50
2018-08-19T15:39:39.909Z,65.00
2018-08-19T15:42:08.369Z,63.80
2018-08-19T15:44:36.831Z,63.50
2018-08-19T15:47:05.631Z,63.50
2018-08-19T15:49:34.072Z,67.00
2018-08-19T15:52:02.566Z,63.80
2018-08-19T15:54:31.337Z,64.20
2018-08-19T15:57:01.330Z,66.00
2018-08-19T15:59:33.161Z,66.40
2018-08-19T16:02:01.606Z,64.10
2018-08-19T16:04:30.229Z,64.50
2018-08-19T16:06:58.971Z,66.30
2018-08-19T16:09:28.366Z,66.50
2018-08-19T16:11:56.967Z,62.40
2018-08-19T16:14:29.806Z,63.00
2018-08-19T16:16:59.571Z,66.00
2018-08-19T16:19:28.114Z,66.20
2018-08-19T16:21:57.744Z,64.90
2018-08-19T16:24:26.732Z,64.00
2018-08-19T16:26:55.938Z,63.10
2018-08-19T16:29:24.431Z,66.20
2018-08-19T16:31:53.415Z,69.40
2018-08-19T16:34:21.877Z,68.30
2018-08-19T16:36:50.492Z,68.90
2018-08-19T16:39:19.185Z,66.20
2018-08-19T16:41:47.682Z,70.80
2018-08-19T16:44:16.227Z,69.30
2018-08-19T16:46:44.815Z,70.30
2018-08-19T16:49:13.268Z,70.60
2018-08-19T16:51:41.823Z,70.00
2018-08-19T16:54:10.322Z,69.80
2018-08-19T16:56:38.870Z,66.20
2018-08-19T16:59:07.319Z,66.00
2018-08-19T17:01:35.791Z,63.40
2018-08-19T17:04:04.322Z,61.70
2018-08-19T17:06:32.854Z,60.40
2018-08-19T17:09:01.290Z,60.70
2018-08-19T17:11:29.794Z,61.30
2018-08-19T17:13:58.250Z,61.40
2018-08-19T17:16:26.750Z,62.30
2018-08-19T17:18:55.293Z,63.80
2018-08-19T17:21:23.773Z,62.90
2018-08-19T17:23:52.685Z,64.80
2018-08-19T17:26:23.364Z,62.90
2018-08-19T17:28:52.175Z,63.30
2018-08-19T17:31:20.908Z,63.80
2018-08-19T17:33:49.422Z,65.60
2018-08-19T17:36:34.877Z,65.20
2018-08-19T17:39:03.752Z,66.00
2018-08-19T17:41:32.176Z,65.00
2018-08-19T17:44:02.353Z,66.70
2018-08-19T17:46:30.870Z,67.00
2018-08-19T17:48:59.297Z,67.20
2018-08-19T17:51:32.747Z,68.10
2018-08-19T17:54:01.247Z,68.40
2018-08-19T17:56:29.718Z,67.80
2018-08-19T17:58:58.367Z,68.20
2018-08-19T18:01:26.895Z,68.90
2018-08-19T18:03:55.373Z,70.50
2018-08-19T18:06:24.598Z,70.00
2018-08-19T18:08:53.832Z,69.80
2018-08-19T18:11:22.554Z,70.70
2018-08-19T18:13:51.948Z,71.10
2018-08-19T18:16:20.481Z,71.50
2018-08-19T18:18:49.045Z,72.20
2018-08-19T18:21:17.568Z,71.30
2018-08-19T18:23:47.923Z,72.40
2018-08-19T18:26:16.726Z,72.30
2018-08-19T18:28:47.022Z,70.90
2018-08-19T18:31:19.045Z,70.60
2018-08-19T18:33:53.194Z,69.60
2018-08-19T18:36:22.865Z,69.60
2018-08-19T18:38:51.626Z,69.40
2018-08-19T18:41:26.707Z,69.70
2018-08-19T18:43:56.587Z,69.40
2018-08-19T18:46:25.618Z,69.80
2018-08-19T18:49:02.410Z,70.00
2018-08-19T18:51:32.576Z,70.40
2018-08-19T18:54:01.276Z,70.70
2018-08-19T18:56:30.208Z,71.50
2018-08-19T18:58:59.471Z,71.50
2018-08-19T19:01:28.147Z,71.40
2018-08-19T19:03:56.897Z,72.00
2018-08-19T19:06:25.859Z,72.60
2018-08-19T19:08:54.593Z,72.80
2018-08-19T19:11:24.146Z,74.10
2018-08-19T19:13:53.532Z,74.90
2018-08-19T19:16:27.985Z,74.60
2018-08-19T19:18:57.244Z,75.30
2018-08-19T19:21:26.097Z,75.60
2018-08-19T19:23:55.318Z,75.80
2018-08-19T19:26:30.534Z,76.30
2018-08-19T19:28:59.349Z,76.60
2018-08-19T19:31:28.284Z,76.60
2018-08-19T19:34:06.054Z,76.80
2018-08-19T19:36:35.009Z,76.90
2018-08-19T19:39:04.479Z,77.30
2018-08-19T19:41:34.502Z,77.80
2018-08-19T19:44:34.885Z,78.50
2018-08-19T19:47:03.730Z,78.80
2018-08-19T19:49:32.600Z,79.20
2018-08-19T19:52:03.643Z,79.60
2018-08-19T19:54:33.851Z,79.80
2018-08-19T19:57:02.737Z,79.90
2018-08-19T19:59:34.180Z,80.20
2018-08-19T20:02:04.114Z,80.40
2018-08-19T20:04:35.977Z,80.80
2018-08-19T20:07:05.075Z,80.70
2018-08-19T20:09:36.959Z,80.90
2018-08-19T20:12:08.372Z,81.00
2018-08-19T20:14:42.903Z,81.10
2018-08-19T20:17:15.023Z,81.40
2018-08-19T20:19:44.102Z,82.00
2018-08-19T20:22:16.232Z,82.00
2018-08-19T20:24:45.456Z,82.00
2018-08-19T20:27:15.080Z,82.10
2018-08-19T20:29:43.853Z,82.30
2018-08-19T20:32:12.600Z,83.20
2018-08-19T20:34:41.523Z,83.10
2018-08-19T20:37:10.323Z,83.60
2018-08-19T20:39:38.946Z,84.50
2018-08-19T20:42:08.005Z,84.60
2018-08-19T20:44:37.681Z,84.90
2018-08-19T20:47:07.760Z,85.20
2018-08-19T20:49:36.299Z,85.50
2018-08-19T20:52:04.824Z,86.70
2018-08-19T20:54:33.318Z,86.00
2018-08-19T20:57:02.186Z,87.10
2018-08-19T20:59:36.933Z,87.10
2018-08-19T21:02:07.177Z,87.80
2018-08-19T21:04:35.798Z,87.90
2018-08-19T21:07:05.216Z,88.10
2018-08-19T21:09:35.317Z,87.60
2018-08-19T21:12:04.023Z,88.40
2018-08-19T21:14:32.559Z,88.30
2018-08-19T21:17:03.151Z,87.90
2018-08-19T21:19:31.595Z,87.60
2018-08-19T21:22:00.068Z,88.00
2018-08-19T21:24:28.602Z,88.00
2018-08-19T21:27:00.467Z,88.10
2018-08-19T21:29:29.608Z,88.50
2018-08-19T21:31:58.074Z,88.30
2018-08-19T21:34:26.621Z,88.20
2018-08-19T21:36:55.100Z,88.40
2018-08-19T21:39:23.577Z,89.10
2018-08-19T21:41:53.582Z,89.30
2018-08-19T21:44:22.052Z,89.60
2018-08-19T21:46:50.486Z,89.70
2018-08-19T21:49:18.923Z,89.80
2018-08-19T21:51:47.398Z,90.10
2018-08-19T21:54:16.816Z,89.80
2018-08-19T21:56:45.261Z,90.00
2018-08-19T21:59:22.286Z,89.60
2018-08-19T22:01:59.982Z,90.00
2018-08-19T22:04:29.106Z,89.80
2018-08-19T22:06:57.925Z,89.70
2018-08-19T22:09:34.123Z,90.10
2018-08-19T22:12:03.175Z,90.20
2018-08-19T22:14:32.495Z,90.40
2018-08-19T22:17:08.151Z,90.60
2018-08-19T22:19:36.696Z,90.40
2018-08-19T22:22:05.345Z,90.10
2018-08-19T22:24:34.206Z,90.40
2018-08-19T22:27:08.804Z,90.80
2018-08-19T22:29:37.422Z,90.80
2018-08-19T22:32:05.925Z,91.10
2018-08-19T22:34:34.361Z,90.70
2018-08-19T22:37:02.992Z,90.60
2018-08-19T22:39:31.515Z,90.80
2018-08-19T22:41:59.982Z,90.90
2018-08-19T22:44:28.489Z,91.10
2018-08-19T22:46:56.931Z,91.30
2018-08-19T22:49:27.553Z,91.20
2018-08-19T22:52:01.355Z,91.30
2018-08-19T22:54:29.835Z,91.50
2018-08-19T22:56:58.282Z,91.70
2018-08-19T22:59:26.727Z,91.70
2018-08-19T23:01:55.189Z,91.60
2018-08-19T23:04:23.641Z,91.40
2018-08-19T23:06:52.035Z,91.30
2018-08-19T23:09:20.506Z,91.50
2018-08-19T23:11:48.960Z,91.10
2018-08-19T23:14:28.696Z,91.10
2018-08-19T23:16:57.154Z,91.10
2018-08-19T23:19:25.578Z,91.20
2018-08-19T23:21:54.071Z,91.30
2018-08-19T23:24:22.530Z,91.30
2018-08-19T23:26:50.972Z,91.70
2018-08-19T23:29:19.432Z,91.70
2018-08-19T23:31:47.937Z,92.00
2018-08-19T23:34:16.392Z,92.10
2018-08-19T23:36:44.838Z,92.00
2018-08-19T23:39:13.311Z,92.10
2018-08-19T23:41:41.752Z,92.00
2018-08-19T23:44:10.505Z,92.20
2018-08-19T23:46:38.986Z,92.40
2018-08-19T23:49:07.472Z,92.80
2018-08-19T23:51:35.900Z,92.80
2018-08-19T23:54:04.870Z,92.90
2018-08-19T23:56:33.382Z,93.00
2018-08-19T23:59:02.152Z,93.10
